PDT,Max TemperatureF,Mean TemperatureF,Min TemperatureF,Max Dew PointF,MeanDew PointF,Min DewpointF,Max Humidity, Mean Humidity, Min Humidity, Max Sea Level PressureIn, Mean Sea Level PressureIn, Min Sea Level PressureIn, Max VisibilityMiles, Mean VisibilityMiles, Min VisibilityMiles, Max Wind SpeedMPH, Mean Wind SpeedMPH, Max Gust SpeedMPH,PrecipitationIn, CloudCover, Events, WindDirDegrees
2012-10-1,84,70,57,57,51,46,94,60,27,30.04,30.00,29.97,10.0,10.0,10.0,12,8,,0.00,0,,149
2012-10-2,68,58,48,57,51,46,100,82,60,29.98,29.94,29.88,10.0,8.0,4.0,16,4,,0.00,0,,299
2012-10-3,73,60,48,57,50,46,100,80,43,29.95,29.89,29.87,10.0,7.5,2.0,14,3,,0.00,0,,303
2012-10-4,60,52,44,55,51,45,100,96,77,30.15,30.07,29.94,10.0,6.1,0.2,16,2,18,0.00,5,,307
2012-10-5,69,61,53,55,54,50,100,83,49,30.16,30.12,30.07,10.0,9.3,2.5,14,3,16,0.00,6,,109
2012-10-6,62,55,48,55,53,48,100,87,68,30.11,30.07,30.02,10.0,9.3,0.2,9,0,,0.00,8,,292
2012-10-7,64,54,44,55,49,45,100,93,63,30.04,30.01,29.98,10.0,4.8,0.2,15,2,,0.00,4,,314
2012-10-8,64,54,44,54,48,45,100,89,59,30.08,30.04,30.02,10.0,8.1,0.5,17,1,16,0.00,6,,309
2012-10-9,62,53,44,54,50,45,100,95,72,30.07,30.04,30.01,10.0,5.8,0.2,15,2,20,0.00,4,,297
2012-10-10,53,52,50,54,51,50,100,100,88,30.03,29.99,29.94,10.0,7.5,0.5,7,0,,0.00,8,,295
2012-10-11,53,50,48,52,50,48,100,99,94,29.99,29.95,29.86,10.0,6.3,1.8,9,0,,0.01,8,,305
2012-10-12,62,55,48,55,50,48,100,84,59,30.21,30.08,29.97,10.0,8.8,2.5,17,2,17,0.00,7,,113
2012-10-13,71,62,53,59,56,54,100,88,60,30.31,30.26,30.22,10.0,7.9,0.2,20,12,22,0.01,6,,112
2012-10-14,71,63,55,61,58,55,100,94,60,30.25,30.19,30.14,10.0,10.0,8.0,18,1,25,0.00,6,,343
2012-10-15,71,63,55,66,61,55,100,92,64,30.16,30.10,30.04,10.0,9.6,1.8,8,0,,0.00,8,,138
2012-10-16,64,56,48,64,56,48,100,89,63,30.15,30.10,30.03,10.0,7.1,0.2,23,5,30,0.20,4,,323
2012-10-17,64,55,46,54,49,46,100,90,59,30.13,30.05,30.00,10.0,7.5,0.2,16,2,22,0.00,3,,289
2012-10-18,71,58,46,55,50,46,100,81,46,30.04,29.97,29.91,10.0,9.5,0.5,13,5,,0.00,0,,147
2012-10-19,64,55,46,57,52,46,100,93,67,30.08,30.04,30.00,10.0,8.3,0.2,18,2,23,0.05,3,,321
2012-10-20,59,52,46,55,49,39,100,86,51,30.05,30.01,29.99,10.0,7.4,0.2,22,5,29,0.01,4,,332
2012-10-21,62,50,37,50,42,37,100,79,42,30.00,29.91,29.77,10.0,9.5,0.5,10,1,,0.20,3,,136
2012-10-22,55,50,44,52,46,41,100,95,58,29.87,29.77,29.69,10.0,8.5,1.0,12,2,18,0.74,6,,119
2012-10-23,57,50,42,46,44,39,100,82,58,30.00,29.95,29.87,10.0,9.7,5.0,17,8,23,0.04,6,,127
2012-10-24,59,52,46,48,46,41,100,86,51,30.21,30.08,29.97,10.0,9.9,6.0,15,9,18,0.05,6,,120
2012-10-25,60,50,41,48,45,41,100,88,55,30.34,30.29,30.20,10.0,10.0,8.0,10,3,,0.00,1,,164
2012-10-26,57,50,42,57,50,43,100,99,93,30.32,30.27,30.20,10.0,8.5,0.2,10,4,,0.01,6,,143
2012-10-27,66,60,53,59,56,50,100,92,56,30.20,30.15,30.10,10.0,7.2,0.2,14,2,,0.00,5,,300
2012-10-28,66,60,53,63,58,54,100,97,78,30.11,30.07,30.03,10.0,4.4,0.2,13,3,,0.03,6,,282
2012-10-29,68,62,55,63,59,55,100,97,68,30.16,30.11,30.07,10.0,5.4,0.2,14,3,,0.01,5,,282
2012-10-30,68,60,53,59,57,54,100,86,68,30.06,29.99,29.89,10.0,8.4,0.2,15,8,22,0.00,3,,130
2012-10-31,62,58,55,57,54,50,100,89,72,29.94,29.87,29.81,10.0,8.4,2.0,26,17,36,0.53,6,,131